createdAt,value
2023-02-08T00:00:13.737Z,12.77
2023-02-08T00:02:43.259Z,9.27
2023-02-08T00:05:10.984Z,11.75
2023-02-08T00:07:38.991Z,17.23
2023-02-08T00:10:07.162Z,14.73
2023-02-08T00:12:35.156Z,13.63
2023-02-08T00:15:04.352Z,13.30
2023-02-08T00:17:32.154Z,18.70
2023-02-08T00:19:59.810Z,10.93
2023-02-08T00:22:27.565Z,19.63
2023-02-08T00:24:55.204Z,16.48
2023-02-08T00:27:22.951Z,21.00
2023-02-08T00:29:50.581Z,14.35
2023-02-08T00:32:18.293Z,15.37
2023-02-08T00:34:45.986Z,12.00
2023-02-08T00:37:13.706Z,17.35
2023-02-08T00:39:41.394Z,16.77
2023-02-08T00:42:09.179Z,15.75
2023-02-08T00:44:36.949Z,11.70
2023-02-08T00:47:04.623Z,11.73
2023-02-08T00:49:32.331Z,15.80
2023-02-08T00:51:59.936Z,14.75
2023-02-08T00:54:27.743Z,14.27
2023-02-08T00:56:55.372Z,11.48
2023-02-08T00:59:23.082Z,18.55
2023-02-08T01:01:50.800Z,13.85
2023-02-08T01:04:18.573Z,18.17
2023-02-08T01:06:46.221Z,19.08
2023-02-08T01:09:14.085Z,12.48
2023-02-08T01:11:41.712Z,14.63
2023-02-08T01:14:09.425Z,13.90
2023-02-08T01:16:37.111Z,8.23
2023-02-08T01:19:05.264Z,7.80
2023-02-08T01:21:34.097Z,11.75
2023-02-08T01:24:02.220Z,16.35
2023-02-08T01:26:29.998Z,12.17
2023-02-08T01:28:57.725Z,14.65
2023-02-08T01:31:26.522Z,16.58
2023-02-08T01:33:54.237Z,13.83
2023-02-08T01:36:22.024Z,23.25
2023-02-08T01:38:49.729Z,13.50
2023-02-08T01:41:20.331Z,11.02
2023-02-08T01:44:06.868Z,12.70
2023-02-08T01:46:38.159Z,11.32
2023-02-08T01:49:09.806Z,11.88
2023-02-08T01:51:39.204Z,9.53
2023-02-08T01:54:07.897Z,12.02
2023-02-08T01:56:36.778Z,11.52
2023-02-08T01:59:05.829Z,10.90
2023-02-08T02:01:33.618Z,10.05
2023-02-08T02:04:02.220Z,13.70
2023-02-08T02:06:32.563Z,9.23
2023-02-08T02:09:20.472Z,12.52
2023-02-08T02:11:48.258Z,13.65
2023-02-08T02:14:16.024Z,11.97
2023-02-08T02:16:43.874Z,16.77
2023-02-08T02:19:14.232Z,15.25
2023-02-08T02:22:02.227Z,12.13
2023-02-08T02:24:29.922Z,11.25
2023-02-08T02:27:27.603Z,12.73
2023-02-08T02:30:13.851Z,5.30
2023-02-08T02:33:00.344Z,12.70
2023-02-08T02:35:27.956Z,8.65
2023-02-08T02:38:14.435Z,6.53
2023-02-08T02:40:44.888Z,9.55
2023-02-08T02:43:31.306Z,13.05
2023-02-08T02:46:01.741Z,11.67
2023-02-08T02:48:34.754Z,15.32
2023-02-08T02:51:13.403Z,10.38
2023-02-08T02:53:46.953Z,9.20
2023-02-08T02:56:22.387Z,10.80
2023-02-08T02:58:50.100Z,12.30
2023-02-08T03:01:26.196Z,10.10
2023-02-08T03:03:54.794Z,9.98
2023-02-08T03:06:45.589Z,11.95
2023-02-08T03:09:33.964Z,12.27
2023-02-08T03:12:05.778Z,10.73
2023-02-08T03:14:42.962Z,11.63
2023-02-08T03:17:27.644Z,15.77
2023-02-08T03:20:07.694Z,13.70
2023-02-08T03:22:38.214Z,16.20
2023-02-08T03:25:08.070Z,15.05
2023-02-08T03:27:37.192Z,7.33
2023-02-08T03:30:09.945Z,10.63
2023-02-08T03:32:43.618Z,15.20
2023-02-08T03:35:27.746Z,15.10
2023-02-08T03:38:05.651Z,17.60
2023-02-08T03:40:40.452Z,7.68
2023-02-08T03:43:27.639Z,9.80
2023-02-08T03:45:57.103Z,14.25
2023-02-08T03:48:24.852Z,12.88
2023-02-08T03:50:53.024Z,11.80
2023-02-08T03:53:21.661Z,18.65
2023-02-08T03:55:49.845Z,11.73
2023-02-08T03:58:24.853Z,9.50
2023-02-08T04:00:56.608Z,19.17
2023-02-08T04:03:25.458Z,9.98
2023-02-08T04:05:53.160Z,10.07
2023-02-08T04:08:22.027Z,12.27
2023-02-08T04:10:49.836Z,11.88
2023-02-08T04:13:17.562Z,11.70
2023-02-08T04:15:45.327Z,11.98
2023-02-08T04:18:13.419Z,11.05
2023-02-08T04:20:41.324Z,13.20
2023-02-08T04:23:09.160Z,14.25
2023-02-08T04:25:36.857Z,11.77
2023-02-08T04:28:04.633Z,15.13
2023-02-08T04:30:32.418Z,12.20
2023-02-08T04:33:00.222Z,11.70
2023-02-08T04:35:28.008Z,11.13
2023-02-08T04:37:55.742Z,14.05
2023-02-08T04:40:23.478Z,12.23
2023-02-08T04:42:51.188Z,12.13
2023-02-08T04:45:19.027Z,12.75
2023-02-08T04:47:46.710Z,10.52
2023-02-08T04:50:14.339Z,9.27
2023-02-08T04:52:42.084Z,11.48
2023-02-08T04:55:09.797Z,17.00
2023-02-08T04:57:37.724Z,11.07
2023-02-08T05:00:05.648Z,9.80
2023-02-08T05:02:33.510Z,16.42
2023-02-08T05:05:01.299Z,12.60
2023-02-08T05:07:28.962Z,13.50
2023-02-08T05:09:56.723Z,9.73
2023-02-08T05:12:24.403Z,13.27
2023-02-08T05:14:52.250Z,14.77
2023-02-08T05:17:20.247Z,10.95
2023-02-08T05:19:47.973Z,8.82
2023-02-08T05:22:15.647Z,14.23
2023-02-08T05:24:43.412Z,15.32
2023-02-08T05:27:11.396Z,12.90
2023-02-08T05:29:39.159Z,12.73
2023-02-08T05:32:06.890Z,9.02
2023-02-08T05:34:34.848Z,12.10
2023-02-08T05:37:02.591Z,9.70
2023-02-08T05:39:30.185Z,14.10
2023-02-08T05:41:57.920Z,15.38
2023-02-08T05:44:25.554Z,10.47
2023-02-08T05:46:53.381Z,8.38
2023-02-08T05:49:21.199Z,15.82
2023-02-08T05:51:50.390Z,13.27
2023-02-08T05:54:18.506Z,10.60
2023-02-08T05:56:46.394Z,12.30
2023-02-08T05:59:14.140Z,8.30
2023-02-08T06:01:41.761Z,9.52
2023-02-08T06:04:09.666Z,11.63
2023-02-08T06:06:37.351Z,13.37
2023-02-08T06:09:05.418Z,12.15
2023-02-08T06:11:33.813Z,11.45
2023-02-08T06:14:01.596Z,10.70
2023-02-08T06:16:29.405Z,15.45
2023-02-08T06:18:58.456Z,11.75
2023-02-08T06:21:26.220Z,14.65
2023-02-08T06:23:54.067Z,11.48
2023-02-08T06:26:21.862Z,15.83
2023-02-08T06:28:49.534Z,13.27
2023-02-08T06:31:17.325Z,10.88
2023-02-08T06:33:45.007Z,13.50
2023-02-08T06:36:12.849Z,14.77
2023-02-08T06:38:40.525Z,11.57
2023-02-08T06:41:08.135Z,15.07
2023-02-08T06:43:35.841Z,13.13
2023-02-08T06:46:05.106Z,12.98
2023-02-08T06:48:32.844Z,10.17
2023-02-08T06:51:00.519Z,11.48
2023-02-08T06:53:28.260Z,18.45
2023-02-08T06:55:55.994Z,17.53
2023-02-08T06:58:23.706Z,10.43
2023-02-08T07:00:51.427Z,12.60
2023-02-08T07:03:19.990Z,15.80
2023-02-08T07:06:03.761Z,16.13
2023-02-08T07:08:32.497Z,19.40
2023-02-08T07:11:00.281Z,13.90
2023-02-08T07:13:27.965Z,8.20
2023-02-08T07:15:55.680Z,7.70
2023-02-08T07:18:23.352Z,8.60
2023-02-08T07:20:51.059Z,6.88
2023-02-08T07:23:18.749Z,8.95
2023-02-08T07:25:46.461Z,15.23
2023-02-08T07:28:14.167Z,12.90
2023-02-08T07:30:42.273Z,11.02
2023-02-08T07:33:10.188Z,7.77
2023-02-08T07:35:37.876Z,16.80
2023-02-08T07:38:05.636Z,16.20
2023-02-08T07:40:33.324Z,11.37
2023-02-08T07:43:01.112Z,13.80
2023-02-08T07:45:28.883Z,17.35
2023-02-08T07:47:56.613Z,12.80
2023-02-08T07:50:24.249Z,19.73
2023-02-08T07:52:51.960Z,12.63
2023-02-08T07:55:20.776Z,13.77
2023-02-08T07:57:48.904Z,12.85
2023-02-08T08:00:17.526Z,7.43
2023-02-08T08:02:45.359Z,14.77
2023-02-08T08:05:13.125Z,9.98
2023-02-08T08:07:40.794Z,6.53
2023-02-08T08:10:08.558Z,14.57
2023-02-08T08:12:36.333Z,11.02
2023-02-08T08:15:06.398Z,10.68
2023-02-08T08:17:34.105Z,8.57
2023-02-08T08:20:01.848Z,9.05
2023-02-08T08:22:29.566Z,13.52
2023-02-08T08:24:58.394Z,11.13
2023-02-08T08:27:26.126Z,9.90
2023-02-08T08:29:53.927Z,10.07
2023-02-08T08:32:21.594Z,17.90
2023-02-08T08:34:49.295Z,11.88
2023-02-08T08:37:17.084Z,11.18
2023-02-08T08:39:44.859Z,13.95
2023-02-08T08:42:12.511Z,10.20
2023-02-08T08:44:40.341Z,17.45
2023-02-08T08:47:09.225Z,17.80
2023-02-08T08:49:36.962Z,10.77
2023-02-08T08:52:07.948Z,7.93
2023-02-08T08:54:36.260Z,13.80
2023-02-08T08:57:04.049Z,16.93
2023-02-08T08:59:31.778Z,15.00
2023-02-08T09:01:59.557Z,16.70
2023-02-08T09:04:27.394Z,13.48
2023-02-08T09:06:55.157Z,7.50
2023-02-08T09:09:23.118Z,13.57
2023-02-08T09:11:50.832Z,15.20
2023-02-08T09:14:18.476Z,10.17
2023-02-08T09:16:48.184Z,16.65
2023-02-08T09:19:16.411Z,18.98
2023-02-08T09:21:44.175Z,19.13
2023-02-08T09:24:11.963Z,16.83
2023-02-08T09:26:39.918Z,14.00
2023-02-08T09:29:07.751Z,13.80
2023-02-08T09:31:38.004Z,20.70
2023-02-08T09:34:06.312Z,16.48
2023-02-08T09:36:34.941Z,14.52
2023-02-08T09:39:04.184Z,12.83
2023-02-08T09:41:50.360Z,17.83
2023-02-08T09:44:33.416Z,17.10
2023-02-08T09:47:21.305Z,25.53
2023-02-08T09:50:18.902Z,13.85
2023-02-08T09:52:48.961Z,12.68
2023-02-08T09:55:26.024Z,14.40
2023-02-08T09:57:54.085Z,14.70
2023-02-08T10:00:23.390Z,17.35
2023-02-08T10:02:51.073Z,16.98
2023-02-08T10:05:22.275Z,16.77
2023-02-08T10:08:01.861Z,15.82
2023-02-08T10:10:32.908Z,13.98
2023-02-08T10:13:20.565Z,10.07
2023-02-08T10:16:13.138Z,11.98
2023-02-08T10:19:06.893Z,17.73
2023-02-08T10:22:00.735Z,13.60
2023-02-08T10:24:47.935Z,13.97
2023-02-08T10:27:16.084Z,12.00
2023-02-08T10:29:56.187Z,9.95
2023-02-08T10:32:30.693Z,21.10
2023-02-08T10:35:01.905Z,13.27
2023-02-08T10:37:31.674Z,15.00
2023-02-08T10:39:59.952Z,7.00
2023-02-08T10:42:27.638Z,8.95
2023-02-08T10:44:58.243Z,10.10
2023-02-08T10:47:45.474Z,13.90
2023-02-08T10:50:19.267Z,10.37
2023-02-08T10:52:47.951Z,14.80
2023-02-08T10:55:19.460Z,12.15
2023-02-08T10:57:48.519Z,6.50
2023-02-08T11:00:24.750Z,10.15
2023-02-08T11:02:53.146Z,7.93
2023-02-08T11:05:26.911Z,16.67
2023-02-08T11:08:16.224Z,10.60
2023-02-08T11:10:55.954Z,8.32
2023-02-08T11:13:23.642Z,11.38
2023-02-08T11:15:56.266Z,6.77
2023-02-08T11:18:25.182Z,6.93
2023-02-08T11:20:56.944Z,11.98
2023-02-08T11:23:25.549Z,11.27
2023-02-08T11:25:53.548Z,10.75
2023-02-08T11:28:24.243Z,8.85
2023-02-08T11:30:55.981Z,10.10
2023-02-08T11:33:24.237Z,8.48
2023-02-08T11:36:01.118Z,6.40
2023-02-08T11:38:28.872Z,9.65
2023-02-08T11:40:57.501Z,9.63
2023-02-08T11:43:29.175Z,4.72
2023-02-08T11:45:57.166Z,6.32
2023-02-08T11:48:57.158Z,6.43
2023-02-08T11:51:30.873Z,4.35
2023-02-08T11:54:00.567Z,6.50
2023-02-08T11:56:29.212Z,6.80
2023-02-08T11:58:57.144Z,9.40
2023-02-08T12:01:27.157Z,9.18
2023-02-08T12:03:57.403Z,7.57
2023-02-08T12:06:25.252Z,6.37
2023-02-08T12:08:58.404Z,6.25
2023-02-08T12:11:35.060Z,5.68
2023-02-08T12:14:21.326Z,4.90
2023-02-08T12:16:55.149Z,13.13
2023-02-08T12:19:32.047Z,7.20
2023-02-08T12:22:08.644Z,10.57
2023-02-08T12:24:38.542Z,9.35
2023-02-08T12:27:24.454Z,9.52
2023-02-08T12:30:04.306Z,8.45
2023-02-08T12:32:39.124Z,6.37
2023-02-08T12:35:18.685Z,9.18
2023-02-08T12:38:23.484Z,5.95
2023-02-08T12:41:00.355Z,6.50
2023-02-08T12:43:43.533Z,7.90
2023-02-08T12:46:11.281Z,6.38
2023-02-08T12:48:58.156Z,8.63
2023-02-08T12:51:44.754Z,6.28
2023-02-08T12:54:13.944Z,6.05
2023-02-08T12:56:46.594Z,18.60
2023-02-08T12:59:28.569Z,7.40
2023-02-08T13:01:57.796Z,7.05
2023-02-08T13:04:27.859Z,9.57
2023-02-08T13:06:59.450Z,6.90
2023-02-08T13:09:27.262Z,4.55
2023-02-08T13:12:00.864Z,6.13
2023-02-08T13:14:31.412Z,6.37
2023-02-08T13:17:19.311Z,9.30
2023-02-08T13:20:00.416Z,9.68
2023-02-08T13:22:28.865Z,8.63
2023-02-08T13:25:12.130Z,5.00
2023-02-08T13:27:39.870Z,7.88
2023-02-08T13:30:08.158Z,8.68
2023-02-08T13:32:44.677Z,7.20
2023-02-08T13:35:12.485Z,8.48
2023-02-08T13:37:40.203Z,5.97
2023-02-08T13:40:08.116Z,6.70
2023-02-08T13:42:35.886Z,5.90
2023-02-08T13:45:03.802Z,12.45
2023-02-08T13:47:31.516Z,8.55
2023-02-08T13:50:01.059Z,5.43
2023-02-08T13:52:47.448Z,4.65
2023-02-08T13:55:30.807Z,4.75
2023-02-08T13:57:59.217Z,7.60
2023-02-08T14:00:28.129Z,4.60
2023-02-08T14:03:03.790Z,5.80
2023-02-08T14:05:35.656Z,4.03
2023-02-08T14:08:03.362Z,4.35
2023-02-08T14:10:54.234Z,4.10
2023-02-08T14:13:28.026Z,4.97
2023-02-08T14:16:14.643Z,4.63
2023-02-08T14:18:42.358Z,4.47
2023-02-08T14:21:19.773Z,4.03
2023-02-08T14:23:47.837Z,3.53
2023-02-08T14:26:20.940Z,5.10
2023-02-08T14:28:49.114Z,3.80
2023-02-08T14:31:16.963Z,3.30
2023-02-08T14:33:45.902Z,2.67
2023-02-08T14:36:33.900Z,5.47
2023-02-08T14:39:27.896Z,3.10
2023-02-08T14:42:00.333Z,2.03
2023-02-08T14:44:43.467Z,3.25
2023-02-08T14:47:11.273Z,2.92
2023-02-08T14:49:40.607Z,1.57
2023-02-08T14:52:13.165Z,3.55
2023-02-08T14:54:48.024Z,3.53
2023-02-08T14:57:36.045Z,4.57
2023-02-08T15:00:07.908Z,3.20
2023-02-08T15:02:35.768Z,3.45
2023-02-08T15:05:09.917Z,4.00
2023-02-08T15:07:48.352Z,3.17
2023-02-08T15:10:16.732Z,2.92
2023-02-08T15:12:45.133Z,1.95
2023-02-08T15:15:21.536Z,3.57
2023-02-08T15:17:49.697Z,4.85
2023-02-08T15:20:37.806Z,3.28
2023-02-08T15:23:19.042Z,3.00
2023-02-08T15:25:54.879Z,3.28
2023-02-08T15:28:23.476Z,2.42
2023-02-08T15:30:56.769Z,2.58
2023-02-08T15:33:25.077Z,3.30
2023-02-08T15:36:03.149Z,2.78
2023-02-08T15:38:31.813Z,2.50
2023-02-08T15:41:09.630Z,2.50
2023-02-08T15:43:37.892Z,3.08
2023-02-08T15:46:17.727Z,4.25
2023-02-08T15:48:45.849Z,2.93
2023-02-08T15:51:17.131Z,4.22
2023-02-08T15:53:46.359Z,3.42
2023-02-08T15:56:35.922Z,3.13
2023-02-08T15:59:05.634Z,2.00
2023-02-08T16:01:33.558Z,3.67
2023-02-08T16:04:01.734Z,2.85
2023-02-08T16:06:30.153Z,2.67
2023-02-08T16:08:59.156Z,3.72
2023-02-08T16:11:30.019Z,5.10
2023-02-08T16:13:58.488Z,3.27
2023-02-08T16:16:27.586Z,4.82
2023-02-08T16:18:58.775Z,3.60
2023-02-08T16:21:26.411Z,3.75
2023-02-08T16:24:01.014Z,3.93
2023-02-08T16:26:29.405Z,3.72
2023-02-08T16:29:03.930Z,2.72
2023-02-08T16:31:32.406Z,4.30
2023-02-08T16:34:03.318Z,3.65
2023-02-08T16:36:33.057Z,5.35
2023-02-08T16:39:18.776Z,4.80
2023-02-08T16:42:09.632Z,3.33
2023-02-08T16:44:42.163Z,3.35
2023-02-08T16:47:26.617Z,4.28
2023-02-08T16:49:54.455Z,3.27
2023-02-08T16:52:22.189Z,3.47
2023-02-08T16:54:49.915Z,4.10
2023-02-08T16:57:17.586Z,3.77
2023-02-08T16:59:45.420Z,3.63
2023-02-08T17:02:13.278Z,4.18
2023-02-08T17:04:41.079Z,3.60
2023-02-08T17:07:12.033Z,5.25
2023-02-08T17:09:39.872Z,5.53
2023-02-08T17:12:21.773Z,4.28
2023-02-08T17:14:50.676Z,4.60
2023-02-08T17:17:18.450Z,6.05
2023-02-08T17:19:47.163Z,3.60
2023-02-08T17:22:14.955Z,5.47
2023-02-08T17:24:42.629Z,7.95
2023-02-08T17:27:12.723Z,4.00
2023-02-08T17:29:40.920Z,6.43
2023-02-08T17:32:08.612Z,4.30
2023-02-08T17:34:36.829Z,5.57
2023-02-08T17:37:04.536Z,8.40
2023-02-08T17:39:32.321Z,4.60
2023-02-08T17:42:00.007Z,7.15
2023-02-08T17:44:27.714Z,7.70
2023-02-08T17:46:55.458Z,4.97
2023-02-08T17:49:23.116Z,5.35
2023-02-08T17:51:50.776Z,6.75
2023-02-08T17:54:20.319Z,5.43
2023-02-08T17:56:48.070Z,10.15
2023-02-08T17:59:15.776Z,8.07
2023-02-08T18:01:47.074Z,6.68
2023-02-08T18:04:16.765Z,7.67
2023-02-08T18:06:47.519Z,5.20
2023-02-08T18:09:15.395Z,5.57
2023-02-08T18:11:45.101Z,3.67
2023-02-08T18:14:13.413Z,6.40
2023-02-08T18:16:41.085Z,7.20
2023-02-08T18:19:08.807Z,4.87
2023-02-08T18:21:36.505Z,6.68
2023-02-08T18:24:04.793Z,6.50
2023-02-08T18:26:35.199Z,7.35
2023-02-08T18:29:03.057Z,8.17
2023-02-08T18:31:31.083Z,4.85
2023-02-08T18:33:58.960Z,5.28
2023-02-08T18:36:26.610Z,5.83
2023-02-08T18:38:55.883Z,4.10
2023-02-08T18:41:27.093Z,5.85
2023-02-08T18:43:55.546Z,9.30
2023-02-08T18:46:28.050Z,6.38
2023-02-08T18:48:55.927Z,6.22
2023-02-08T18:51:23.971Z,6.18
2023-02-08T18:53:52.456Z,3.87
2023-02-08T18:56:23.141Z,4.20
2023-02-08T18:58:52.219Z,4.22
2023-02-08T19:01:20.973Z,7.17
2023-02-08T19:03:52.297Z,4.93
2023-02-08T19:06:22.551Z,6.80
2023-02-08T19:08:51.824Z,6.20
2023-02-08T19:11:23.791Z,3.55
2023-02-08T19:13:51.891Z,4.65
2023-02-08T19:16:22.238Z,5.75
2023-02-08T19:18:50.078Z,5.07
2023-02-08T19:21:18.005Z,7.35
2023-02-08T19:23:48.885Z,6.78
2023-02-08T19:26:20.353Z,3.93
2023-02-08T19:28:48.308Z,5.00
2023-02-08T19:31:19.891Z,5.65
2023-02-08T19:33:48.754Z,4.87
2023-02-08T19:36:20.364Z,3.20
2023-02-08T19:38:48.466Z,5.72
2023-02-08T19:41:17.068Z,5.05
2023-02-08T19:43:45.890Z,5.67
2023-02-08T19:46:16.338Z,6.43
2023-02-08T19:48:45.004Z,4.43
2023-02-08T19:51:12.762Z,5.47
2023-02-08T19:53:40.626Z,6.78
2023-02-08T19:56:14.873Z,7.32
2023-02-08T19:58:50.350Z,4.93
2023-02-08T20:01:22.225Z,5.38
2023-02-08T20:03:50.338Z,4.25
2023-02-08T20:06:21.914Z,5.38
2023-02-08T20:08:52.232Z,7.37
2023-02-08T20:11:30.708Z,4.55
2023-02-08T20:13:59.554Z,4.95
2023-02-08T20:16:31.235Z,3.50
2023-02-08T20:19:02.572Z,3.70
2023-02-08T20:21:30.271Z,6.22
2023-02-08T20:23:58.037Z,9.60
2023-02-08T20:26:26.710Z,4.93
2023-02-08T20:28:55.556Z,7.13
2023-02-08T20:31:27.368Z,5.88
2023-02-08T20:33:55.376Z,5.47
2023-02-08T20:36:23.908Z,4.53
2023-02-08T20:38:52.874Z,6.03
2023-02-08T20:41:22.201Z,4.77
2023-02-08T20:43:50.058Z,6.13
2023-02-08T20:46:19.272Z,5.07
2023-02-08T20:48:47.211Z,5.00
2023-02-08T20:51:16.305Z,5.15
2023-02-08T20:53:44.379Z,5.15
2023-02-08T20:56:13.059Z,6.20
2023-02-08T20:58:40.988Z,8.07
2023-02-08T21:01:21.626Z,8.55
2023-02-08T21:03:49.470Z,5.25
2023-02-08T21:06:17.268Z,6.20
2023-02-08T21:08:45.232Z,7.13
2023-02-08T21:11:13.143Z,6.00
2023-02-08T21:13:40.905Z,8.20
2023-02-08T21:16:08.927Z,6.07
2023-02-08T21:18:38.159Z,5.22
2023-02-08T21:21:06.421Z,7.35
2023-02-08T21:23:35.363Z,5.90
2023-02-08T21:26:03.310Z,4.80
2023-02-08T21:28:31.509Z,5.18
2023-02-08T21:30:59.803Z,8.07
2023-02-08T21:33:27.949Z,5.40
2023-02-08T21:35:55.680Z,5.30
2023-02-08T21:38:23.669Z,6.47
2023-02-08T21:40:51.417Z,4.82
2023-02-08T21:43:19.170Z,5.45
2023-02-08T21:45:46.914Z,6.28
2023-02-08T21:48:14.781Z,5.83
2023-02-08T21:51:01.262Z,4.78
2023-02-08T21:53:47.881Z,6.43
2023-02-08T21:56:15.716Z,5.77
2023-02-08T21:58:43.567Z,5.45
2023-02-08T22:01:11.386Z,4.32
2023-02-08T22:03:39.148Z,6.10
2023-02-08T22:06:25.880Z,7.78
2023-02-08T22:08:53.644Z,6.63
2023-02-08T22:11:21.478Z,4.75
2023-02-08T22:13:49.180Z,6.20
2023-02-08T22:16:18.308Z,5.18
2023-02-08T22:18:46.206Z,4.85
2023-02-08T22:21:14.051Z,5.53
2023-02-08T22:23:41.736Z,5.47
2023-02-08T22:26:09.806Z,7.00
2023-02-08T22:28:37.708Z,5.60
2023-02-08T22:31:05.641Z,9.57
2023-02-08T22:33:33.472Z,4.95
2023-02-08T22:36:01.323Z,4.63
2023-02-08T22:38:29.170Z,5.07
2023-02-08T22:40:57.007Z,4.10
2023-02-08T22:43:24.805Z,8.80
2023-02-08T22:46:01.745Z,9.70
2023-02-08T22:48:29.699Z,4.38
2023-02-08T22:50:57.376Z,6.47
2023-02-08T22:53:25.139Z,8.67
2023-02-08T22:55:53.386Z,6.30
2023-02-08T22:58:21.318Z,5.30
2023-02-08T23:00:49.181Z,6.05
2023-02-08T23:03:17.197Z,4.80
2023-02-08T23:05:45.771Z,4.82
2023-02-08T23:08:14.771Z,6.47
2023-02-08T23:10:42.755Z,4.17
2023-02-08T23:13:10.649Z,6.15
2023-02-08T23:15:39.125Z,6.13
2023-02-08T23:18:07.137Z,7.13
2023-02-08T23:20:37.268Z,4.25
2023-02-08T23:23:05.122Z,3.08
2023-02-08T23:25:32.908Z,4.30
2023-02-08T23:28:00.761Z,5.00
2023-02-08T23:30:28.611Z,2.65
2023-02-08T23:32:56.616Z,5.72
2023-02-08T23:35:24.299Z,4.70
2023-02-08T23:37:52.130Z,3.55
2023-02-08T23:40:19.932Z,1.83
2023-02-08T23:42:47.735Z,3.13
2023-02-08T23:45:15.607Z,3.72
2023-02-08T23:47:43.494Z,2.97
2023-02-08T23:50:14.321Z,1.73
2023-02-08T23:52:42.169Z,4.23
2023-02-08T23:55:12.980Z,2.88
2023-02-08T23:57:40.851Z,5.30
